logo
Rechercher aéroport 
image banner adimage banner adimage banner ad
image banner ad

FA0613 - Standerton Hospital

Situé à , South Africa

ICAO - , IATA -

Données fournies par Airmate  

Information générale

Coordonnées: S26°56'27" E29°14'37"
Élévation : 5113 feet MSL.
 
Voir autres Aéroports à Mpumalanga

Données opérationnelles

Special qualification required
Heure actuelle UTC:
Heure actuelle locale:
Météo à : - ( 0 km )
METAR: PAJC 172357Z AUTO 14007KT 10SM CLR 08/M02 A3010 RMK AO2 SLP192 T00831017 10089 20044 58020 $
Voir NOTAMs / SUP AIP / TFR affectant cet aéroport [VIEW]
Fréquences de communication: [VIEW]

Pistes:

Coordonnées de l'aéroport

Adresse: South Africa

Vue satellite de FA0613